TimeMDT,TemperatureF,Dew PointF,Humidity,Sea Level PressureIn,VisibilityMPH,Wind Direction,Wind SpeedMPH,Gust SpeedMPH,PrecipitationIn,Events,Conditions,WindDirDegrees,DateUTC
12:08 AM,46.4,37.4,71,30.68,10.0,WSW,13.8,-,N/A,,Clear,240,2013-08-24 06:08:00
12:28 AM,46.4,37.4,71,30.68,10.0,West,13.8,-,N/A,Thunderstorm,Clear,260,2013-08-24 06:28:00
12:48 AM,46.4,37.4,71,30.68,10.0,SW,12.7,-,N/A,Thunderstorm,Clear,230,2013-08-24 06:48:00
1:08 AM,44.6,37.4,76,30.68,10.0,WSW,10.4,-,N/A,,Clear,240,2013-08-24 07:08:00
1:28 AM,44.6,37.4,76,30.68,10.0,WSW,12.7,-,N/A,,Scattered Clouds,250,2013-08-24 07:28:00
1:48 AM,46.4,37.4,71,30.69,10.0,SW,12.7,-,N/A,,Mostly Cloudy,230,2013-08-24 07:48:00
2:08 AM,44.6,39.2,81,30.68,10.0,SW,12.7,-,N/A,Thunderstorm,Scattered Clouds,220,2013-08-24 08:08:00
2:28 AM,44.6,37.4,76,30.68,10.0,SW,15.0,-,N/A,,Mostly Cloudy,220,2013-08-24 08:28:00
2:48 AM,44.6,37.4,76,30.69,10.0,WSW,19.6,-,N/A,,Mostly Cloudy,250,2013-08-24 08:48:00
3:08 AM,44.6,39.2,81,30.69,10.0,West,17.3,21.9,N/A,,Overcast,260,2013-08-24 09:08:00
3:28 AM,44.6,39.2,81,30.69,10.0,West,24.2,-,N/A,,Overcast,260,2013-08-24 09:28:00
3:48 AM,42.8,39.2,87,30.69,10.0,West,21.9,-,N/A,,Drizzle,270,2013-08-24 09:48:00
4:08 AM,42.8,39.2,87,30.69,10.0,West,21.9,26.5,N/A,,Overcast,280,2013-08-24 10:08:00
4:28 AM,42.8,39.2,87,30.69,10.0,West,21.9,31.1,N/A,,Mostly Cloudy,270,2013-08-24 10:28:00
4:48 AM,41.0,39.2,93,30.69,10.0,West,21.9,-,N/A,,Mostly Cloudy,280,2013-08-24 10:48:00
5:08 AM,41.0,37.4,87,30.69,10.0,WSW,20.7,24.2,N/A,,Mostly Cloudy,250,2013-08-24 11:08:00
5:28 AM,42.8,37.4,81,30.69,10.0,West,17.3,-,N/A,,Overcast,260,2013-08-24 11:28:00
5:48 AM,42.8,37.4,81,30.69,10.0,WSW,13.8,-,N/A,,Drizzle,250,2013-08-24 11:48:00
6:08 AM,42.8,37.4,81,30.68,10.0,WSW,16.1,-,N/A,,Mostly Cloudy,240,2013-08-24 12:08:00
6:28 AM,44.6,37.4,76,30.69,10.0,WSW,13.8,-,N/A,,Overcast,240,2013-08-24 12:28:00
6:48 AM,42.8,37.4,81,30.70,10.0,SW,12.7,-,N/A,,Mostly Cloudy,220,2013-08-24 12:48:00
7:08 AM,44.6,37.4,76,30.70,10.0,SW,16.1,-,N/A,,Mostly Cloudy,220,2013-08-24 13:08:00
7:28 AM,44.6,37.4,76,30.70,10.0,SW,13.8,-,N/A,,Scattered Clouds,220,2013-08-24 13:28:00
7:48 AM,42.8,37.4,81,30.71,10.0,SSW,15.0,-,N/A,,Clear,210,2013-08-24 13:48:00
8:08 AM,44.6,37.4,76,30.71,10.0,SSW,10.4,-,N/A,,Clear,200,2013-08-24 14:08:00
8:28 AM,46.4,37.4,71,30.71,10.0,SSW,11.5,-,N/A,,Clear,200,2013-08-24 14:28:00
8:48 AM,46.4,37.4,71,30.71,10.0,SSW,15.0,19.6,N/A,,Scattered Clouds,210,2013-08-24 14:48:00
9:08 AM,48.2,37.4,66,30.72,10.0,SW,17.3,-,N/A,,Mostly Cloudy,220,2013-08-24 15:08:00
9:28 AM,50.0,39.2,66,30.71,10.0,SSW,18.4,21.9,N/A,,Overcast,210,2013-08-24 15:28:00
9:48 AM,48.2,37.4,66,30.72,10.0,WSW,19.6,27.6,N/A,,Overcast,250,2013-08-24 15:48:00
10:08 AM,48.2,37.4,66,30.74,10.0,WSW,19.6,25.3,N/A,,Overcast,240,2013-08-24 16:08:00
10:28 AM,48.2,39.2,71,30.74,10.0,WSW,18.4,-,N/A,,Overcast,250,2013-08-24 16:28:00
10:48 AM,48.2,37.4,66,30.74,10.0,SW,16.1,25.3,N/A,,Overcast,230,2013-08-24 16:48:00
11:08 AM,50.0,39.2,66,30.74,10.0,SW,12.7,21.9,N/A,,Overcast,220,2013-08-24 17:08:00
11:28 AM,50.0,39.2,66,30.75,10.0,WSW,10.4,16.1,N/A,,Overcast,240,2013-08-24 17:28:00
11:48 AM,48.2,39.2,71,30.75,10.0,West,12.7,-,N/A,,Overcast,260,2013-08-24 17:48:00
12:08 PM,51.8,39.2,62,30.75,10.0,WSW,9.2,-,N/A,,Mostly Cloudy,250,2013-08-24 18:08:00
12:28 PM,53.6,37.4,54,30.74,10.0,West,11.5,20.7,N/A,,Overcast,280,2013-08-24 18:28:00
12:48 PM,53.6,35.6,51,30.74,10.0,SW,18.4,21.9,N/A,,Overcast,230,2013-08-24 18:48:00
1:08 PM,55.4,37.4,51,30.74,10.0,SW,16.1,20.7,N/A,,Mostly Cloudy,220,2013-08-24 19:08:00
1:28 PM,55.4,37.4,51,30.73,10.0,WSW,13.8,25.3,N/A,,Mostly Cloudy,240,2013-08-24 19:28:00
1:48 PM,55.4,37.4,51,30.73,10.0,WSW,11.5,21.9,N/A,Thunderstorm,Overcast,240,2013-08-24 19:48:00
2:08 PM,59.0,37.4,45,30.73,10.0,West,6.9,19.6,N/A,,Scattered Clouds,280,2013-08-24 20:08:00
2:28 PM,59.0,35.6,42,30.73,10.0,SW,9.2,18.4,N/A,,Mostly Cloudy,230,2013-08-24 20:28:00
2:48 PM,57.2,35.6,44,30.73,10.0,West,9.2,-,N/A,,Mostly Cloudy,270,2013-08-24 20:48:00
3:08 PM,55.4,35.6,47,30.72,10.0,WSW,13.8,20.7,N/A,,Mostly Cloudy,250,2013-08-24 21:08:00
3:28 PM,55.4,37.4,51,30.72,10.0,SW,13.8,-,N/A,,Overcast,230,2013-08-24 21:28:00
3:48 PM,55.4,35.6,47,30.72,10.0,SW,17.3,23.0,N/A,,Overcast,230,2013-08-24 21:48:00
4:08 PM,51.8,37.4,58,30.73,10.0,SSW,20.7,-,N/A,,Overcast,210,2013-08-24 22:08:00
4:28 PM,51.8,39.2,62,30.73,10.0,SSW,18.4,-,N/A,,Overcast,210,2013-08-24 22:28:00
4:48 PM,50.0,39.2,66,30.73,10.0,SW,17.3,-,N/A,,Overcast,230,2013-08-24 22:48:00
5:08 PM,48.2,41.0,76,30.74,7.0,SSW,16.1,-,N/A,Rain,Light Rain,210,2013-08-24 23:08:00
5:28 PM,46.4,42.8,87,30.72,7.0,West,15.0,-,N/A,Rain,Light Rain,260,2013-08-24 23:28:00
5:48 PM,46.4,41.0,81,30.71,10.0,West,11.5,-,N/A,,Overcast,270,2013-08-24 23:48:00
6:08 PM,50.0,41.0,71,30.71,10.0,West,10.4,-,N/A,,Overcast,260,2013-08-25 00:08:00
6:28 PM,48.2,42.8,82,30.71,10.0,WSW,9.2,-,N/A,,Mostly Cloudy,240,2013-08-25 00:28:00
6:48 PM,46.4,42.8,87,30.71,10.0,SW,10.4,-,N/A,,Mostly Cloudy,220,2013-08-25 00:48:00
7:08 PM,50.0,41.0,71,30.72,10.0,SW,12.7,-,N/A,,Scattered Clouds,230,2013-08-25 01:08:00
7:28 PM,50.0,42.8,76,30.72,10.0,SW,10.4,-,N/A,,Mostly Cloudy,230,2013-08-25 01:28:00
7:48 PM,48.2,41.0,76,30.72,10.0,SSW,10.4,-,N/A,,Mostly Cloudy,210,2013-08-25 01:48:00
8:08 PM,48.2,39.2,71,30.72,10.0,SW,12.7,-,N/A,,Overcast,220,2013-08-25 02:08:00
8:28 PM,46.4,39.2,76,30.74,10.0,SW,11.5,-,N/A,,Scattered Clouds,220,2013-08-25 02:28:00
8:48 PM,46.4,39.2,76,30.74,10.0,SW,8.1,-,N/A,,Clear,230,2013-08-25 02:48:00
9:08 PM,46.4,39.2,76,30.75,10.0,SW,6.9,-,N/A,,Scattered Clouds,220,2013-08-25 03:08:00
9:28 PM,46.4,39.2,76,30.76,10.0,SW,6.9,-,N/A,,Scattered Clouds,230,2013-08-25 03:28:00
9:48 PM,46.4,39.2,76,30.77,10.0,SSW,6.9,-,N/A,,Clear,200,2013-08-25 03:48:00
10:08 PM,46.4,39.2,76,30.77,10.0,SSW,11.5,-,N/A,,Scattered Clouds,210,2013-08-25 04:08:00
10:28 PM,46.4,39.2,76,30.76,10.0,SSW,12.7,-,N/A,,Scattered Clouds,200,2013-08-25 04:28:00
10:48 PM,46.4,37.4,71,30.77,10.0,SSW,15.0,-,N/A,,Clear,210,2013-08-25 04:48:00
11:08 PM,46.4,39.2,76,30.76,10.0,South,16.1,-,N/A,,Scattered Clouds,190,2013-08-25 05:08:00
11:28 PM,46.4,39.2,76,30.76,10.0,SSW,18.4,24.2,N/A,,Overcast,200,2013-08-25 05:28:00
11:48 PM,44.6,39.2,81,30.76,10.0,South,17.3,21.9,N/A,,Mostly Cloudy,190,2013-08-25 05:48:00